createdAt,value
2022-12-25T00:01:53.833Z,21.23
2022-12-25T00:06:59.470Z,19.50
2022-12-25T00:17:08.328Z,19.42
2022-12-25T00:22:12.372Z,18.20
2022-12-25T00:27:16.496Z,18.60
2022-12-25T00:32:21.710Z,17.58
2022-12-25T00:37:25.525Z,18.60
2022-12-25T00:42:29.401Z,17.58
2022-12-25T00:47:34.725Z,18.08
2022-12-25T00:52:38.604Z,16.38
2022-12-25T00:57:42.476Z,16.88
2022-12-25T01:02:47.814Z,15.35
2022-12-25T01:07:51.687Z,16.73
2022-12-25T01:12:55.571Z,15.48
2022-12-25T01:18:07.270Z,13.10
2022-12-25T01:23:11.724Z,13.50
2022-12-25T01:28:15.577Z,14.73
2022-12-25T01:33:20.925Z,16.52
2022-12-25T01:38:24.877Z,16.83
2022-12-25T01:43:30.450Z,15.07
2022-12-25T01:53:39.910Z,17.67
2022-12-25T01:58:43.915Z,16.52
2022-12-25T02:03:49.147Z,17.00
2022-12-25T02:08:53.122Z,17.23
2022-12-25T02:13:56.998Z,17.85
2022-12-25T02:19:06.963Z,17.90
2022-12-25T02:24:31.488Z,17.20
2022-12-25T02:29:43.815Z,17.13
2022-12-25T02:34:51.971Z,18.45
2022-12-25T02:40:00.319Z,19.42
2022-12-25T02:45:23.792Z,18.85
2022-12-25T02:50:45.349Z,19.25
2022-12-25T02:56:07.404Z,19.83
2022-12-25T03:01:45.800Z,19.88
2022-12-25T03:07:01.908Z,18.77
2022-12-25T03:17:12.435Z,17.90
2022-12-25T03:22:37.347Z,17.48
2022-12-25T03:27:42.225Z,18.48
2022-12-25T03:38:29.914Z,17.13
2022-12-25T03:43:58.822Z,17.02
2022-12-25T03:49:27.016Z,15.90
2022-12-25T03:54:49.765Z,15.38
2022-12-25T04:00:07.526Z,13.90
2022-12-25T04:05:31.872Z,14.60
2022-12-25T04:10:53.525Z,14.52
2022-12-25T04:16:14.957Z,15.93
2022-12-25T04:21:37.589Z,13.25
2022-12-25T04:26:58.955Z,14.52
2022-12-25T04:32:20.551Z,9.30
2022-12-25T04:37:25.883Z,10.65
2022-12-25T04:42:29.777Z,7.78
2022-12-25T04:47:34.286Z,8.45
2022-12-25T04:52:40.446Z,8.48
2022-12-25T04:57:44.268Z,7.60
2022-12-25T05:02:48.301Z,7.32
2022-12-25T05:07:53.631Z,6.60
2022-12-25T05:12:57.441Z,6.88
2022-12-25T05:18:01.259Z,8.07
2022-12-25T05:23:06.474Z,8.50
2022-12-25T05:28:10.308Z,9.05
2022-12-25T05:33:14.174Z,8.35
2022-12-25T05:38:19.404Z,7.90
2022-12-25T05:43:24.084Z,8.90
2022-12-25T05:48:27.945Z,11.57
2022-12-25T05:53:33.167Z,8.32
2022-12-25T05:58:39.127Z,8.40
2022-12-25T06:03:43.021Z,10.07
2022-12-25T06:08:48.334Z,12.88
2022-12-25T06:13:52.674Z,6.35
2022-12-25T06:18:56.504Z,8.52
2022-12-25T06:24:02.692Z,8.90
2022-12-25T06:29:07.040Z,10.98
2022-12-25T06:34:11.092Z,7.97
2022-12-25T06:39:16.356Z,7.88
2022-12-25T06:44:20.231Z,8.38
2022-12-25T06:49:24.115Z,7.72
2022-12-25T06:54:29.732Z,7.88
2022-12-25T06:59:33.560Z,7.55
2022-12-25T07:04:40.152Z,6.88
2022-12-25T07:09:45.369Z,7.53
2022-12-25T07:14:50.208Z,6.37
2022-12-25T07:19:54.423Z,6.67
2022-12-25T07:24:59.639Z,7.30
2022-12-25T07:30:03.494Z,6.03
2022-12-25T07:35:07.951Z,7.47
2022-12-25T07:40:14.010Z,14.90
2022-12-25T07:45:17.889Z,21.92
2022-12-25T07:50:21.735Z,22.70
2022-12-25T07:55:26.946Z,20.50
2022-12-25T08:00:32.888Z,16.63
2022-12-25T08:05:36.898Z,14.20
2022-12-25T08:10:46.448Z,18.92
2022-12-25T08:15:50.311Z,15.95
2022-12-25T08:20:54.175Z,13.80
2022-12-25T08:26:04.985Z,12.15
2022-12-25T08:31:11.423Z,12.88
2022-12-25T08:41:20.240Z,12.40
2022-12-25T08:46:24.486Z,12.68
2022-12-25T08:51:28.544Z,12.55
2022-12-25T08:56:33.863Z,12.40
2022-12-25T09:01:37.763Z,10.63
2022-12-25T09:06:41.702Z,11.48
2022-12-25T09:11:46.900Z,10.68
2022-12-25T09:16:51.516Z,8.45
2022-12-25T09:21:55.624Z,10.30
2022-12-25T09:27:02.042Z,10.60
2022-12-25T09:32:06.991Z,9.65
2022-12-25T09:37:10.973Z,8.30
2022-12-25T09:42:18.811Z,8.82
2022-12-25T09:47:25.075Z,7.88
2022-12-25T09:52:34.423Z,8.18
2022-12-25T09:57:39.794Z,8.05
2022-12-25T10:03:04.583Z,7.10
2022-12-25T10:08:15.317Z,6.28
2022-12-25T10:13:40.615Z,6.95
2022-12-25T10:18:57.956Z,6.60
2022-12-25T10:24:08.329Z,8.13
2022-12-25T10:29:15.714Z,7.30
2022-12-25T10:34:19.585Z,6.95
2022-12-25T10:39:25.641Z,5.72
2022-12-25T10:44:31.002Z,7.78
2022-12-25T10:54:39.127Z,6.82
2022-12-25T10:59:45.791Z,5.55
2022-12-25T11:04:49.997Z,5.13
2022-12-25T11:09:59.285Z,6.38
2022-12-25T11:15:38.956Z,5.30
2022-12-25T11:20:49.909Z,5.65
2022-12-25T11:25:57.475Z,4.45
2022-12-25T11:31:06.363Z,4.40
2022-12-25T11:36:17.627Z,4.22
2022-12-25T11:41:30.180Z,5.60
2022-12-25T11:46:41.108Z,4.18
2022-12-25T11:51:47.515Z,5.30
2022-12-25T11:56:51.596Z,4.90
2022-12-25T12:02:00.349Z,4.38
2022-12-25T12:07:07.701Z,4.30
2022-12-25T12:12:18.140Z,3.15
2022-12-25T12:17:23.374Z,4.03
2022-12-25T12:27:34.962Z,3.25
2022-12-25T12:32:42.758Z,4.25
2022-12-25T12:37:48.237Z,4.25
2022-12-25T12:42:52.488Z,3.38
2022-12-25T12:47:58.238Z,4.60
2022-12-25T12:53:18.363Z,3.17
2022-12-25T12:58:33.703Z,3.13
2022-12-25T13:03:58.335Z,4.15
2022-12-25T13:09:08.009Z,3.50
2022-12-25T13:14:15.868Z,5.03
2022-12-25T13:19:23.153Z,4.93
2022-12-25T13:24:28.392Z,5.47
2022-12-25T13:34:38.456Z,6.68
2022-12-25T13:39:49.243Z,7.40
2022-12-25T13:44:55.844Z,6.35
2022-12-25T13:50:02.833Z,5.72
2022-12-25T13:55:14.984Z,5.43
2022-12-25T14:00:20.968Z,6.22
2022-12-25T14:05:37.893Z,7.40
2022-12-25T14:10:47.853Z,6.90
2022-12-25T14:15:53.496Z,7.40
2022-12-25T14:21:01.398Z,7.38
2022-12-25T14:26:05.349Z,6.82
2022-12-25T14:31:12.836Z,7.45
2022-12-25T14:36:18.098Z,7.20
2022-12-25T14:41:33.730Z,8.27
2022-12-25T14:46:37.866Z,8.52
2022-12-25T14:51:44.567Z,11.27
2022-12-25T14:56:49.209Z,14.32
2022-12-25T15:01:55.631Z,14.23
2022-12-25T15:07:07.309Z,13.63
2022-12-25T15:12:11.729Z,13.90
2022-12-25T15:17:25.597Z,13.93
2022-12-25T15:22:53.881Z,14.60
2022-12-25T15:27:54.793Z,10.18
2022-12-25T15:32:58.661Z,12.55
2022-12-25T15:38:03.906Z,10.70
2022-12-25T15:43:14.439Z,12.87
2022-12-25T15:48:26.288Z,11.75
2022-12-25T15:53:31.523Z,12.23
2022-12-25T15:58:35.381Z,10.55
2022-12-25T16:03:39.271Z,11.50
2022-12-25T16:08:45.002Z,12.35
2022-12-25T16:13:48.807Z,12.13
2022-12-25T16:18:52.776Z,13.52
2022-12-25T16:23:57.959Z,13.50
2022-12-25T16:29:06.787Z,15.00
2022-12-25T16:34:11.700Z,13.75
2022-12-25T16:39:17.041Z,13.73
2022-12-25T16:44:20.877Z,11.80
2022-12-25T16:49:24.815Z,10.02
2022-12-25T16:54:30.228Z,17.23
2022-12-25T16:59:34.747Z,23.98
2022-12-25T17:04:39.445Z,26.83
2022-12-25T17:09:44.993Z,34.67
2022-12-25T17:14:48.890Z,44.92
2022-12-25T17:19:52.779Z,49.15
2022-12-25T17:24:58.039Z,42.75
2022-12-25T17:30:01.854Z,29.97
2022-12-25T17:35:06.328Z,40.83
2022-12-25T17:40:12.762Z,39.33
2022-12-25T17:45:16.645Z,36.08
2022-12-25T17:50:20.509Z,34.33
2022-12-25T17:55:25.717Z,35.83
2022-12-25T18:00:29.543Z,33.13
2022-12-25T18:05:37.027Z,34.17
2022-12-25T18:10:43.380Z,40.33
2022-12-25T18:15:47.291Z,41.25
2022-12-25T18:20:51.153Z,45.72
2022-12-25T18:25:56.441Z,40.45
2022-12-25T18:31:00.636Z,25.20
2022-12-25T18:36:05.404Z,34.13
2022-12-25T18:41:11.458Z,29.08
2022-12-25T18:46:17.665Z,26.92
2022-12-25T18:51:21.565Z,31.77
2022-12-25T18:56:26.840Z,31.17
2022-12-25T19:01:30.809Z,28.30
2022-12-25T19:06:35.000Z,33.72
2022-12-25T19:11:46.219Z,21.65
2022-12-25T19:16:52.206Z,27.95
2022-12-25T19:21:57.189Z,19.95
2022-12-25T19:27:02.454Z,34.47
2022-12-25T19:32:06.903Z,16.02
2022-12-25T19:37:10.854Z,19.13
2022-12-25T19:42:18.944Z,25.95
2022-12-25T19:47:23.111Z,25.42
2022-12-25T19:52:27.024Z,27.02
2022-12-25T19:57:32.301Z,33.80
2022-12-25T20:02:36.271Z,27.40
2022-12-25T20:07:40.197Z,52.85
2022-12-25T20:12:45.462Z,91.72
2022-12-25T20:17:49.345Z,62.73
2022-12-25T20:22:53.187Z,83.28
2022-12-25T20:27:58.611Z,75.78
2022-12-25T20:33:02.756Z,75.80
2022-12-25T20:38:06.633Z,72.32
2022-12-25T20:43:11.883Z,57.72
2022-12-25T20:48:15.716Z,28.55
2022-12-25T20:53:20.312Z,37.45
2022-12-25T20:58:25.556Z,33.28
2022-12-25T21:03:29.572Z,31.90
2022-12-25T21:08:33.568Z,32.65
2022-12-25T21:13:40.534Z,29.17
2022-12-25T21:18:44.496Z,30.70
2022-12-25T21:23:48.382Z,29.73
2022-12-25T21:28:55.507Z,30.63
2022-12-25T21:33:59.665Z,30.15
2022-12-25T21:39:05.001Z,32.10
2022-12-25T21:44:11.794Z,28.42
2022-12-25T21:49:36.481Z,25.02
2022-12-25T21:54:40.327Z,24.20
2022-12-25T21:59:45.676Z,24.77
2022-12-25T22:04:49.508Z,22.92
2022-12-25T22:09:53.604Z,23.60
2022-12-25T22:15:03.014Z,22.98
2022-12-25T22:20:08.914Z,24.15
2022-12-25T22:30:19.623Z,24.70
2022-12-25T22:35:23.666Z,24.45
2022-12-25T22:40:27.516Z,23.40
2022-12-25T22:45:32.757Z,27.38
2022-12-25T22:50:36.672Z,27.25
2022-12-25T22:55:40.528Z,26.10
2022-12-25T23:00:46.748Z,23.20
2022-12-25T23:05:55.481Z,20.92
2022-12-25T23:11:03.006Z,19.30
2022-12-25T23:16:08.282Z,20.50
2022-12-25T23:21:30.919Z,18.40
2022-12-25T23:26:34.776Z,20.60
2022-12-25T23:31:41.980Z,20.20
2022-12-25T23:36:46.235Z,21.23
2022-12-25T23:41:50.091Z,21.02
2022-12-25T23:46:55.449Z,22.10
2022-12-25T23:51:59.368Z,20.50
2022-12-25T23:57:03.202Z,20.15
